sensor_id;sensor_type;location;lat;lon;timestamp;pressure;altitude;pressure_sealevel;temperature;humidity
20350;BME280;10332;50.208;18.988;2023-01-28T00:01:39;98445.94;;;1.55;66.99
20350;BME280;10332;50.208;18.988;2023-01-28T00:04:07;98445.88;;;1.56;67.40
20350;BME280;10332;50.208;18.988;2023-01-28T00:06:34;98450.34;;;1.50;67.24
20350;BME280;10332;50.208;18.988;2023-01-28T00:09:02;98443.56;;;1.47;67.36
20350;BME280;10332;50.208;18.988;2023-01-28T00:11:29;98451.13;;;1.52;66.51
20350;BME280;10332;50.208;18.988;2023-01-28T00:13:57;98447.91;;;1.43;66.73
20350;BME280;10332;50.208;18.988;2023-01-28T00:16:25;98444.44;;;1.46;67.03
20350;BME280;10332;50.208;18.988;2023-01-28T00:18:56;98452.72;;;1.57;66.32
20350;BME280;10332;50.208;18.988;2023-01-28T00:21:24;98452.25;;;1.41;67.13
20350;BME280;10332;50.208;18.988;2023-01-28T00:23:54;98460.22;;;1.32;67.66
20350;BME280;10332;50.208;18.988;2023-01-28T00:26:23;98451.66;;;1.32;67.68
20350;BME280;10332;50.208;18.988;2023-01-28T00:28:51;98456.19;;;1.22;67.77
20350;BME280;10332;50.208;18.988;2023-01-28T00:31:24;98462.16;;;1.23;67.59
20350;BME280;10332;50.208;18.988;2023-01-28T00:33:55;98457.03;;;1.23;67.11
20350;BME280;10332;50.208;18.988;2023-01-28T00:36:25;98456.03;;;1.28;67.30
20350;BME280;10332;50.208;18.988;2023-01-28T00:38:56;98450.19;;;1.22;67.08
20350;BME280;10332;50.208;18.988;2023-01-28T00:41:27;98452.03;;;1.18;67.67
20350;BME280;10332;50.208;18.988;2023-01-28T00:43:55;98449.50;;;1.15;67.34
20350;BME280;10332;50.208;18.988;2023-01-28T00:46:23;98452.91;;;1.17;67.16
20350;BME280;10332;50.208;18.988;2023-01-28T00:48:53;98443.66;;;1.10;67.43
20350;BME280;10332;50.208;18.988;2023-01-28T00:51:20;98443.47;;;1.18;67.74
20350;BME280;10332;50.208;18.988;2023-01-28T00:53:48;98443.47;;;1.18;67.88
20350;BME280;10332;50.208;18.988;2023-01-28T00:56:17;98447.66;;;1.20;67.62
20350;BME280;10332;50.208;18.988;2023-01-28T00:58:46;98445.06;;;1.22;67.78
20350;BME280;10332;50.208;18.988;2023-01-28T01:01:21;98445.81;;;1.25;67.74
20350;BME280;10332;50.208;18.988;2023-01-28T01:03:51;98448.19;;;1.33;67.28
20350;BME280;10332;50.208;18.988;2023-01-28T01:06:24;98451.59;;;1.35;67.19
20350;BME280;10332;50.208;18.988;2023-01-28T01:08:52;98458.47;;;1.33;67.52
20350;BME280;10332;50.208;18.988;2023-01-28T01:11:19;98452.34;;;1.38;67.37
20350;BME280;10332;50.208;18.988;2023-01-28T01:13:55;98457.59;;;1.35;67.37
20350;BME280;10332;50.208;18.988;2023-01-28T01:16:27;98459.50;;;1.27;67.48
20350;BME280;10332;50.208;18.988;2023-01-28T01:18:56;98457.59;;;1.35;67.49
20350;BME280;10332;50.208;18.988;2023-01-28T01:21:26;98463.59;;;1.34;67.25
20350;BME280;10332;50.208;18.988;2023-01-28T01:23:54;98463.00;;;1.23;68.03
20350;BME280;10332;50.208;18.988;2023-01-28T01:26:23;98467.03;;;1.33;68.00
20350;BME280;10332;50.208;18.988;2023-01-28T01:28:53;98462.78;;;1.32;68.15
20350;BME280;10332;50.208;18.988;2023-01-28T01:31:21;98459.38;;;1.32;68.28
20350;BME280;10332;50.208;18.988;2023-01-28T01:33:51;98467.13;;;1.30;68.12
20350;BME280;10332;50.208;18.988;2023-01-28T01:36:19;98470.47;;;1.34;67.92
20350;BME280;10332;50.208;18.988;2023-01-28T01:38:53;98470.63;;;1.28;67.93
20350;BME280;10332;50.208;18.988;2023-01-28T01:41:30;98472.00;;;1.41;67.48
20350;BME280;10332;50.208;18.988;2023-01-28T01:44:02;98468.06;;;1.28;67.80
20350;BME280;10332;50.208;18.988;2023-01-28T01:46:51;98467.03;;;1.35;68.03
20350;BME280;10332;50.208;18.988;2023-01-28T01:49:27;98470.53;;;1.31;68.02
20350;BME280;10332;50.208;18.988;2023-01-28T01:52:04;98475.63;;;1.32;67.53
20350;BME280;10332;50.208;18.988;2023-01-28T01:54:37;98474.00;;;1.30;67.81
20350;BME280;10332;50.208;18.988;2023-01-28T01:57:10;98475.81;;;1.25;67.54
20350;BME280;10332;50.208;18.988;2023-01-28T01:59:42;98484.47;;;1.22;67.80
20350;BME280;10332;50.208;18.988;2023-01-28T02:02:11;98482.56;;;1.30;67.84
20350;BME280;10332;50.208;18.988;2023-01-28T02:04:42;98483.53;;;1.25;67.86
20350;BME280;10332;50.208;18.988;2023-01-28T02:07:15;98485.13;;;1.30;67.90
20350;BME280;10332;50.208;18.988;2023-01-28T02:09:43;98480.72;;;1.35;68.10
20350;BME280;10332;50.208;18.988;2023-01-28T02:12:23;98486.00;;;1.29;67.91
20350;BME280;10332;50.208;18.988;2023-01-28T02:15:00;98479.66;;;1.42;68.17
20350;BME280;10332;50.208;18.988;2023-01-28T02:17:29;98479.44;;;1.52;68.01
20350;BME280;10332;50.208;18.988;2023-01-28T02:20:09;98476.16;;;1.47;67.71
20350;BME280;10332;50.208;18.988;2023-01-28T02:28:59;98471.72;;;1.52;67.69
20350;BME280;10332;50.208;18.988;2023-01-28T02:34:53;98473.50;;;1.50;67.72
20350;BME280;10332;50.208;18.988;2023-01-28T02:37:43;98475.91;;;1.56;67.65
20350;BME280;10332;50.208;18.988;2023-01-28T02:40:47;98479.44;;;1.52;67.54
20350;BME280;10332;50.208;18.988;2023-01-28T02:43:43;98476.03;;;1.51;67.66
20350;BME280;10332;50.208;18.988;2023-01-28T02:49:25;98473.41;;;1.53;67.38
20350;BME280;10332;50.208;18.988;2023-01-28T02:55:08;98486.25;;;1.53;67.24
20350;BME280;10332;50.208;18.988;2023-01-28T02:57:58;98485.19;;;1.61;67.32
20350;BME280;10332;50.208;18.988;2023-01-28T03:00:48;98487.53;;;1.70;67.09
20350;BME280;10332;50.208;18.988;2023-01-28T03:06:42;98485.59;;;1.79;67.04
20350;BME280;10332;50.208;18.988;2023-01-28T03:09:13;98485.41;;;1.86;66.87
20350;BME280;10332;50.208;18.988;2023-01-28T03:12:03;98489.75;;;1.84;66.69
20350;BME280;10332;50.208;18.988;2023-01-28T03:21:14;98489.06;;;1.78;66.58
20350;BME280;10332;50.208;18.988;2023-01-28T03:24:09;98487.28;;;1.80;66.96
20350;BME280;10332;50.208;18.988;2023-01-28T03:27:04;98488.75;;;1.88;67.07
20350;BME280;10332;50.208;18.988;2023-01-28T03:29:55;98494.41;;;1.70;66.91
20350;BME280;10332;50.208;18.988;2023-01-28T03:32:43;98490.97;;;1.71;67.19
20350;BME280;10332;50.208;18.988;2023-01-28T03:35:33;98490.22;;;1.66;67.24
20350;BME280;10332;50.208;18.988;2023-01-28T03:38:20;98491.81;;;1.70;67.41
20350;BME280;10332;50.208;18.988;2023-01-28T03:41:00;98496.97;;;1.70;67.33
20350;BME280;10332;50.208;18.988;2023-01-28T03:43:31;98493.56;;;1.69;67.64
20350;BME280;10332;50.208;18.988;2023-01-28T03:46:00;98500.44;;;1.69;67.69
20350;BME280;10332;50.208;18.988;2023-01-28T03:48:28;98495.13;;;1.75;67.54
20350;BME280;10332;50.208;18.988;2023-01-28T03:50:55;98492.66;;;1.72;67.68
20350;BME280;10332;50.208;18.988;2023-01-28T03:53:23;98490.09;;;1.70;67.82
20350;BME280;10332;50.208;18.988;2023-01-28T03:55:53;98492.75;;;1.67;67.64
20350;BME280;10332;50.208;18.988;2023-01-28T03:58:20;98489.66;;;1.55;68.25
20350;BME280;10332;50.208;18.988;2023-01-28T04:00:49;98486.31;;;1.51;68.44
20350;BME280;10332;50.208;18.988;2023-01-28T04:03:19;98487.94;;;1.55;68.49
20350;BME280;10332;50.208;18.988;2023-01-28T04:06:04;98492.06;;;1.62;68.61
20350;BME280;10332;50.208;18.988;2023-01-28T04:08:32;98490.31;;;1.63;68.42
20350;BME280;10332;50.208;18.988;2023-01-28T04:11:00;98493.59;;;1.68;68.29
20350;BME280;10332;50.208;18.988;2023-01-28T04:13:42;98485.03;;;1.67;68.27
20350;BME280;10332;50.208;18.988;2023-01-28T04:16:13;98498.84;;;1.65;68.05
20350;BME280;10332;50.208;18.988;2023-01-28T04:18:42;98493.03;;;1.57;68.43
20350;BME280;10332;50.208;18.988;2023-01-28T04:21:11;98498.13;;;1.58;68.41
20350;BME280;10332;50.208;18.988;2023-01-28T04:23:38;98496.50;;;1.56;68.47
20350;BME280;10332;50.208;18.988;2023-01-28T04:26:06;98496.56;;;1.53;68.68
20350;BME280;10332;50.208;18.988;2023-01-28T04:28:34;98494.72;;;1.58;68.51
20350;BME280;10332;50.208;18.988;2023-01-28T04:31:02;98498.03;;;1.63;68.60
20350;BME280;10332;50.208;18.988;2023-01-28T04:33:29;98494.72;;;1.58;68.82
20350;BME280;10332;50.208;18.988;2023-01-28T04:35:57;98498.28;;;1.54;68.67
20350;BME280;10332;50.208;18.988;2023-01-28T04:38:24;98503.56;;;1.48;68.77
20350;BME280;10332;50.208;18.988;2023-01-28T04:40:53;98503.66;;;1.45;68.55
20350;BME280;10332;50.208;18.988;2023-01-28T04:43:20;98505.25;;;1.49;68.81
20350;BME280;10332;50.208;18.988;2023-01-28T04:45:48;98503.47;;;1.51;68.60
20350;BME280;10332;50.208;18.988;2023-01-28T04:48:16;98500.81;;;1.55;68.61
20350;BME280;10332;50.208;18.988;2023-01-28T04:50:44;98499.91;;;1.56;68.28
20350;BME280;10332;50.208;18.988;2023-01-28T04:53:11;98502.53;;;1.55;68.57
20350;BME280;10332;50.208;18.988;2023-01-28T04:55:39;98502.63;;;1.50;68.53
20350;BME280;10332;50.208;18.988;2023-01-28T04:58:07;98501.97;;;1.42;68.46
20350;BME280;10332;50.208;18.988;2023-01-28T05:00:34;98503.72;;;1.41;68.42
20350;BME280;10332;50.208;18.988;2023-01-28T05:03:02;98513.19;;;1.39;68.83
20350;BME280;10332;50.208;18.988;2023-01-28T05:05:30;98514.00;;;1.41;68.62
20350;BME280;10332;50.208;18.988;2023-01-28T05:07:58;98512.22;;;1.43;68.55
20350;BME280;10332;50.208;18.988;2023-01-28T05:10:26;98516.75;;;1.34;68.76
20350;BME280;10332;50.208;18.988;2023-01-28T05:12:54;98511.69;;;1.31;68.79
20350;BME280;10332;50.208;18.988;2023-01-28T05:15:22;98510.75;;;1.33;68.31
20350;BME280;10332;50.208;18.988;2023-01-28T05:17:49;98511.66;;;1.32;68.80
20350;BME280;10332;50.208;18.988;2023-01-28T05:20:17;98509.03;;;1.34;68.67
20350;BME280;10332;50.208;18.988;2023-01-28T05:22:44;98519.31;;;1.35;68.79
20350;BME280;10332;50.208;18.988;2023-01-28T05:25:12;98516.00;;;1.30;68.80
20350;BME280;10332;50.208;18.988;2023-01-28T05:27:40;98517.81;;;1.25;68.67
20350;BME280;10332;50.208;18.988;2023-01-28T05:30:09;98528.88;;;1.29;68.89
20350;BME280;10332;50.208;18.988;2023-01-28T05:32:36;98529.88;;;1.23;68.98
20350;BME280;10332;50.208;18.988;2023-01-28T05:35:04;98536.66;;;1.26;69.09
20350;BME280;10332;50.208;18.988;2023-01-28T05:37:32;98535.47;;;1.40;68.90
20350;BME280;10332;50.208;18.988;2023-01-28T05:39:59;98534.75;;;1.35;69.05
20350;BME280;10332;50.208;18.988;2023-01-28T05:42:27;98538.84;;;1.42;69.19
20350;BME280;10332;50.208;18.988;2023-01-28T05:44:55;98542.22;;;1.45;68.76
20350;BME280;10332;50.208;18.988;2023-01-28T05:47:22;98540.28;;;1.54;68.81
20350;BME280;10332;50.208;18.988;2023-01-28T05:49:49;98541.97;;;1.55;68.60
20350;BME280;10332;50.208;18.988;2023-01-28T05:52:17;98549.56;;;1.60;68.46
20350;BME280;10332;50.208;18.988;2023-01-28T05:54:44;98548.75;;;1.58;68.75
20350;BME280;10332;50.208;18.988;2023-01-28T05:57:12;98550.38;;;1.62;68.44
20350;BME280;10332;50.208;18.988;2023-01-28T05:59:39;98552.16;;;1.58;68.58
20350;BME280;10332;50.208;18.988;2023-01-28T06:02:06;98565.09;;;1.57;68.49
20350;BME280;10332;50.208;18.988;2023-01-28T06:04:34;98560.69;;;1.60;68.33
20350;BME280;10332;50.208;18.988;2023-01-28T06:07:01;98571.81;;;1.61;68.34
20350;BME280;10332;50.208;18.988;2023-01-28T06:09:29;98568.16;;;1.71;68.34
20350;BME280;10332;50.208;18.988;2023-01-28T06:11:56;98568.94;;;1.75;68.25
20350;BME280;10332;50.208;18.988;2023-01-28T06:14:24;98580.09;;;1.74;68.07
20350;BME280;10332;50.208;18.988;2023-01-28T06:16:51;98581.00;;;1.73;68.18
20350;BME280;10332;50.208;18.988;2023-01-28T06:19:18;98588.78;;;1.69;68.08
20350;BME280;10332;50.208;18.988;2023-01-28T06:21:46;98584.72;;;1.59;68.29
20350;BME280;10332;50.208;18.988;2023-01-28T06:24:13;98582.94;;;1.63;68.16
20350;BME280;10332;50.208;18.988;2023-01-28T06:26:41;98584.69;;;1.61;68.46
20350;BME280;10332;50.208;18.988;2023-01-28T06:29:08;98587.84;;;1.74;68.30
20350;BME280;10332;50.208;18.988;2023-01-28T06:31:36;98592.00;;;1.78;68.46
20350;BME280;10332;50.208;18.988;2023-01-28T06:34:04;98594.03;;;1.65;68.41
20350;BME280;10332;50.208;18.988;2023-01-28T06:36:31;98596.53;;;1.68;68.57
20350;BME280;10332;50.208;18.988;2023-01-28T06:38:59;98592.41;;;1.61;68.23
20350;BME280;10332;50.208;18.988;2023-01-28T06:41:26;98595.59;;;1.70;68.33
20350;BME280;10332;50.208;18.988;2023-01-28T06:43:54;98595.47;;;1.77;68.37
20350;BME280;10332;50.208;18.988;2023-01-28T06:46:21;98599.81;;;1.75;68.24
20350;BME280;10332;50.208;18.988;2023-01-28T06:48:49;98603.31;;;1.70;68.03
20350;BME280;10332;50.208;18.988;2023-01-28T06:51:16;98598.75;;;1.48;68.71
20350;BME280;10332;50.208;18.988;2023-01-28T06:53:44;98602.03;;;1.54;68.64
20350;BME280;10332;50.208;18.988;2023-01-28T06:56:12;98607.84;;;1.61;68.53
20350;BME280;10332;50.208;18.988;2023-01-28T06:58:39;98603.53;;;1.63;68.48
20350;BME280;10332;50.208;18.988;2023-01-28T07:01:13;98610.41;;;1.62;68.17
20350;BME280;10332;50.208;18.988;2023-01-28T07:03:40;98612.84;;;1.67;68.23
20350;BME280;10332;50.208;18.988;2023-01-28T07:06:08;98605.09;;;1.68;68.16
20350;BME280;10332;50.208;18.988;2023-01-28T07:08:36;98616.19;;;1.72;68.29
20350;BME280;10332;50.208;18.988;2023-01-28T07:11:04;98619.19;;;1.54;68.66
20350;BME280;10332;50.208;18.988;2023-01-28T07:13:32;98618.34;;;1.52;69.13
20350;BME280;10332;50.208;18.988;2023-01-28T07:16:00;98625.69;;;1.68;68.91
20350;BME280;10332;50.208;18.988;2023-01-28T07:18:28;98624.47;;;1.83;67.99
20350;BME280;10332;50.208;18.988;2023-01-28T07:20:55;98624.41;;;1.86;69.45
20350;BME280;10332;50.208;18.988;2023-01-28T07:23:23;98624.94;;;1.99;71.10
20350;BME280;10332;50.208;18.988;2023-01-28T07:25:50;98631.31;;;2.18;71.30
20350;BME280;10332;50.208;18.988;2023-01-28T07:28:18;98627.28;;;2.41;69.89
20350;BME280;10332;50.208;18.988;2023-01-28T07:30:49;98629.81;;;2.42;68.74
20350;BME280;10332;50.208;18.988;2023-01-28T07:33:20;98638.28;;;2.47;68.15
20350;BME280;10332;50.208;18.988;2023-01-28T07:35:47;98633.81;;;2.54;68.43
20350;BME280;10332;50.208;18.988;2023-01-28T07:38:15;98638.56;;;2.68;67.77
20350;BME280;10332;50.208;18.988;2023-01-28T07:40:43;98636.59;;;2.77;67.44
20350;BME280;10332;50.208;18.988;2023-01-28T07:43:11;98641.31;;;2.93;67.01
20350;BME280;10332;50.208;18.988;2023-01-28T07:45:39;98644.31;;;2.79;66.04
20350;BME280;10332;50.208;18.988;2023-01-28T07:48:10;98640.09;;;2.75;66.17
20350;BME280;10332;50.208;18.988;2023-01-28T07:50:38;98643.56;;;2.74;65.84
20350;BME280;10332;50.208;18.988;2023-01-28T07:53:10;98641.78;;;2.76;66.22
20350;BME280;10332;50.208;18.988;2023-01-28T07:55:38;98640.00;;;2.79;66.70
20350;BME280;10332;50.208;18.988;2023-01-28T07:58:08;98645.91;;;2.83;66.65
20350;BME280;10332;50.208;18.988;2023-01-28T08:00:38;98641.47;;;2.87;66.56
20350;BME280;10332;50.208;18.988;2023-01-28T08:03:12;98647.94;;;2.72;65.52
20350;BME280;10332;50.208;18.988;2023-01-28T08:05:46;98650.63;;;2.67;65.78
20350;BME280;10332;50.208;18.988;2023-01-28T08:08:15;98645.25;;;2.75;66.03
20350;BME280;10332;50.208;18.988;2023-01-28T08:10:44;98662.38;;;2.77;65.92
20350;BME280;10332;50.208;18.988;2023-01-28T08:13:13;98657.53;;;2.96;65.88
20350;BME280;10332;50.208;18.988;2023-01-28T08:15:42;98660.31;;;2.90;64.90
20350;BME280;10332;50.208;18.988;2023-01-28T08:18:12;98661.38;;;2.83;64.59
20350;BME280;10332;50.208;18.988;2023-01-28T08:20:41;98667.28;;;2.87;64.70
20350;BME280;10332;50.208;18.988;2023-01-28T08:23:17;98662.88;;;2.90;64.61
20350;BME280;10332;50.208;18.988;2023-01-28T08:25:46;98665.53;;;2.87;64.00
20350;BME280;10332;50.208;18.988;2023-01-28T08:28:16;98664.69;;;2.87;63.90
20350;BME280;10332;50.208;18.988;2023-01-28T08:30:44;98675.03;;;2.85;63.62
20350;BME280;10332;50.208;18.988;2023-01-28T08:33:16;98673.25;;;2.87;63.71
20350;BME280;10332;50.208;18.988;2023-01-28T08:35:45;98669.47;;;3.00;63.96
20350;BME280;10332;50.208;18.988;2023-01-28T08:38:14;98670.22;;;3.04;63.28
20350;BME280;10332;50.208;18.988;2023-01-28T08:40:42;98668.38;;;3.09;63.33
20350;BME280;10332;50.208;18.988;2023-01-28T08:43:10;98672.81;;;3.04;62.85
20350;BME280;10332;50.208;18.988;2023-01-28T08:45:39;98667.84;;;2.96;62.84
20350;BME280;10332;50.208;18.988;2023-01-28T08:48:11;98680.47;;;3.07;63.03
20350;BME280;10332;50.208;18.988;2023-01-28T08:50:40;98677.00;;;3.08;62.99
20350;BME280;10332;50.208;18.988;2023-01-28T08:53:16;98677.47;;;3.21;62.89
20350;BME280;10332;50.208;18.988;2023-01-28T08:55:45;98675.34;;;3.35;62.17
20350;BME280;10332;50.208;18.988;2023-01-28T08:58:16;98684.56;;;3.44;61.80
20350;BME280;10332;50.208;18.988;2023-01-28T09:00:45;98679.84;;;3.56;61.09
20350;BME280;10332;50.208;18.988;2023-01-28T09:03:13;98678.63;;;3.68;60.91
20350;BME280;10332;50.208;18.988;2023-01-28T09:05:41;98683.72;;;3.71;60.95
20350;BME280;10332;50.208;18.988;2023-01-28T09:08:14;98689.34;;;3.56;60.13
20350;BME280;10332;50.208;18.988;2023-01-28T09:10:42;98687.28;;;3.67;60.42
20350;BME280;10332;50.208;18.988;2023-01-28T09:13:14;98685.28;;;3.47;60.58
20350;BME280;10332;50.208;18.988;2023-01-28T09:15:42;98683.94;;;3.63;60.19
20350;BME280;10332;50.208;18.988;2023-01-28T09:18:10;98686.44;;;3.66;59.60
20350;BME280;10332;50.208;18.988;2023-01-28T09:20:38;98688.03;;;3.70;59.35
20350;BME280;10332;50.208;18.988;2023-01-28T09:23:06;98690.34;;;3.80;60.36
20350;BME280;10332;50.208;18.988;2023-01-28T09:25:34;98683.09;;;3.91;58.54
20350;BME280;10332;50.208;18.988;2023-01-28T09:28:05;98688.84;;;3.99;59.46
20350;BME280;10332;50.208;18.988;2023-01-28T09:30:33;98695.22;;;4.15;59.80
20350;BME280;10332;50.208;18.988;2023-01-28T09:33:04;98693.63;;;4.11;59.05
20350;BME280;10332;50.208;18.988;2023-01-28T09:35:32;98700.88;;;4.00;58.65
20350;BME280;10332;50.208;18.988;2023-01-28T09:38:00;98703.88;;;3.86;58.80
20350;BME280;10332;50.208;18.988;2023-01-28T09:40:37;98702.97;;;3.89;58.95
20350;BME280;10332;50.208;18.988;2023-01-28T09:44:05;98700.88;;;4.00;59.64
20350;BME280;10332;50.208;18.988;2023-01-28T09:46:37;98705.66;;;3.84;59.00
20350;BME280;10332;50.208;18.988;2023-01-28T09:49:44;98701.41;;;3.55;59.83
20350;BME280;10332;50.208;18.988;2023-01-28T09:52:20;98696.19;;;3.57;59.93
20350;BME280;10332;50.208;18.988;2023-01-28T09:55:05;98703.81;;;3.61;59.34
20350;BME280;10332;50.208;18.988;2023-01-28T09:57:45;98700.22;;;3.65;59.49
20350;BME280;10332;50.208;18.988;2023-01-28T10:00:17;98695.84;;;3.69;60.53
20350;BME280;10332;50.208;18.988;2023-01-28T10:17:51;98681.22;;;4.22;59.07
20350;BME280;10332;50.208;18.988;2023-01-28T10:21:01;98680.03;;;4.06;58.71
20350;BME280;10332;50.208;18.988;2023-01-28T10:26:16;98678.72;;;3.93;58.49
20350;BME280;10332;50.208;18.988;2023-01-28T10:28:54;98690.44;;;4.03;58.55
20350;BME280;10332;50.208;18.988;2023-01-28T10:31:31;98691.50;;;3.97;58.74
20350;BME280;10332;50.208;18.988;2023-01-28T10:34:02;98685.31;;;4.02;58.76
20350;BME280;10332;50.208;18.988;2023-01-28T10:36:30;98688.63;;;4.07;58.57
20350;BME280;10332;50.208;18.988;2023-01-28T10:38:58;98696.91;;;3.90;59.16
20350;BME280;10332;50.208;18.988;2023-01-28T10:41:26;98686.47;;;3.93;59.50
20350;BME280;10332;50.208;18.988;2023-01-28T10:43:55;98688.97;;;3.96;59.30
20350;BME280;10332;50.208;18.988;2023-01-28T10:46:29;98692.41;;;3.95;58.78
20350;BME280;10332;50.208;18.988;2023-01-28T10:49:17;98687.91;;;4.02;58.62
20350;BME280;10332;50.208;18.988;2023-01-28T10:51:44;98691.03;;;4.11;58.62
20350;BME280;10332;50.208;18.988;2023-01-28T10:54:25;98685.19;;;4.31;58.43
20350;BME280;10332;50.208;18.988;2023-01-28T10:56:57;98682.31;;;4.65;57.26
20350;BME280;10332;50.208;18.988;2023-01-28T10:59:35;98687.34;;;4.95;56.13
20350;BME280;10332;50.208;18.988;2023-01-28T11:02:26;98689.25;;;5.13;54.93
20350;BME280;10332;50.208;18.988;2023-01-28T11:05:16;98687.81;;;5.73;54.20
20350;BME280;10332;50.208;18.988;2023-01-28T11:07:44;98683.25;;;6.44;53.20
20350;BME280;10332;50.208;18.988;2023-01-28T11:10:38;98676.38;;;6.63;52.89
20350;BME280;10332;50.208;18.988;2023-01-28T11:13:17;98677.13;;;6.67;50.76
20350;BME280;10332;50.208;18.988;2023-01-28T11:18:25;98678.97;;;6.02;51.71
20350;BME280;10332;50.208;18.988;2023-01-28T11:21:00;98671.13;;;6.04;52.23
20350;BME280;10332;50.208;18.988;2023-01-28T11:23:46;98666.72;;;5.82;52.47
20350;BME280;10332;50.208;18.988;2023-01-28T11:26:24;98672.53;;;5.67;52.56
20350;BME280;10332;50.208;18.988;2023-01-28T11:28:54;98671.53;;;5.48;53.07
20350;BME280;10332;50.208;18.988;2023-01-28T11:31:23;98667.03;;;5.53;53.55
20350;BME280;10332;50.208;18.988;2023-01-28T11:34:01;98665.28;;;5.53;53.66
20350;BME280;10332;50.208;18.988;2023-01-28T11:36:33;98662.69;;;5.53;53.31
20350;BME280;10332;50.208;18.988;2023-01-28T11:41:48;98661.09;;;5.27;53.61
20350;BME280;10332;50.208;18.988;2023-01-28T11:44:23;98674.50;;;5.15;54.37
20350;BME280;10332;50.208;18.988;2023-01-28T11:47:18;98661.50;;;4.93;54.96
20350;BME280;10332;50.208;18.988;2023-01-28T11:53:03;98662.53;;;4.64;55.99
20350;BME280;10332;50.208;18.988;2023-01-28T11:56:22;98658.53;;;4.55;56.48
20350;BME280;10332;50.208;18.988;2023-01-28T12:07:26;98662.34;;;4.45;57.77
20350;BME280;10332;50.208;18.988;2023-01-28T12:19:45;98656.22;;;4.23;59.00
20350;BME280;10332;50.208;18.988;2023-01-28T12:43:05;98650.88;;;4.77;58.91
20350;BME280;10332;50.208;18.988;2023-01-28T12:45:44;98655.16;;;4.78;58.56
20350;BME280;10332;50.208;18.988;2023-01-28T12:48:28;98666.81;;;4.65;58.39
20350;BME280;10332;50.208;18.988;2023-01-28T12:51:03;98668.53;;;4.40;58.83
20350;BME280;10332;50.208;18.988;2023-01-28T12:56:35;98662.31;;;4.20;59.49
20350;BME280;10332;50.208;18.988;2023-01-28T12:59:17;98669.16;;;4.21;59.31
20350;BME280;10332;50.208;18.988;2023-01-28T13:02:25;98661.03;;;4.07;60.12
20350;BME280;10332;50.208;18.988;2023-01-28T13:05:27;98664.53;;;4.06;60.47
20350;BME280;10332;50.208;18.988;2023-01-28T13:08:08;98671.81;;;4.20;60.39
20350;BME280;10332;50.208;18.988;2023-01-28T13:10:43;98669.47;;;4.12;60.34
20350;BME280;10332;50.208;18.988;2023-01-28T13:13:34;98670.38;;;4.11;60.14
20350;BME280;10332;50.208;18.988;2023-01-28T13:16:05;98675.88;;;4.01;60.39
20350;BME280;10332;50.208;18.988;2023-01-28T13:21:34;98678.09;;;3.85;61.55
20350;BME280;10332;50.208;18.988;2023-01-28T13:26:55;98693.81;;;3.79;61.57
20350;BME280;10332;50.208;18.988;2023-01-28T13:31:54;98693.94;;;3.74;62.00
20350;BME280;10332;50.208;18.988;2023-01-28T13:34:36;98684.75;;;3.65;62.21
20350;BME280;10332;50.208;18.988;2023-01-28T13:37:27;98687.19;;;3.70;62.22
20350;BME280;10332;50.208;18.988;2023-01-28T13:42:40;98688.66;;;3.49;62.91
20350;BME280;10332;50.208;18.988;2023-01-28T13:48:01;98700.09;;;3.42;63.51
20350;BME280;10332;50.208;18.988;2023-01-28T13:50:39;98701.56;;;3.51;63.36
20350;BME280;10332;50.208;18.988;2023-01-28T13:53:36;98702.53;;;3.47;63.85
20350;BME280;10332;50.208;18.988;2023-01-28T13:56:24;98695.78;;;3.41;64.10
20350;BME280;10332;50.208;18.988;2023-01-28T14:08:14;98695.09;;;3.36;64.63
20350;BME280;10332;50.208;18.988;2023-01-28T14:16:19;98702.41;;;3.50;64.81
20350;BME280;10332;50.208;18.988;2023-01-28T14:18:51;98704.03;;;3.54;65.55
20350;BME280;10332;50.208;18.988;2023-01-28T14:21:20;98705.56;;;3.59;64.85
20350;BME280;10332;50.208;18.988;2023-01-28T14:23:57;98704.94;;;3.53;64.52
20350;BME280;10332;50.208;18.988;2023-01-28T14:32:25;98708.47;;;3.49;65.08
20350;BME280;10332;50.208;18.988;2023-01-28T14:35:06;98702.56;;;3.45;65.19
20350;BME280;10332;50.208;18.988;2023-01-28T14:37:35;98710.47;;;3.39;65.29
20350;BME280;10332;50.208;18.988;2023-01-28T14:40:12;98703.75;;;3.35;65.52
20350;BME280;10332;50.208;18.988;2023-01-28T14:42:45;98715.56;;;3.42;65.43
20350;BME280;10332;50.208;18.988;2023-01-28T14:48:28;98718.72;;;3.52;64.77
20350;BME280;10332;50.208;18.988;2023-01-28T14:59:50;98724.78;;;3.51;64.84
20350;BME280;10332;50.208;18.988;2023-01-28T15:02:23;98729.34;;;3.41;65.27
20350;BME280;10332;50.208;18.988;2023-01-28T15:04:53;98730.22;;;3.41;65.15
20350;BME280;10332;50.208;18.988;2023-01-28T15:07:26;98733.59;;;3.44;65.10
20350;BME280;10332;50.208;18.988;2023-01-28T15:10:06;98734.56;;;3.39;65.09
20350;BME280;10332;50.208;18.988;2023-01-28T15:12:40;98729.44;;;3.38;65.40
20350;BME280;10332;50.208;18.988;2023-01-28T15:15:15;98736.56;;;3.30;65.62
20350;BME280;10332;50.208;18.988;2023-01-28T15:17:46;98733.84;;;3.34;65.56
20350;BME280;10332;50.208;18.988;2023-01-28T15:20:22;98740.66;;;3.37;65.65
20350;BME280;10332;50.208;18.988;2023-01-28T15:22:52;98736.56;;;3.30;65.59
20350;BME280;10332;50.208;18.988;2023-01-28T15:25:22;98744.25;;;3.31;65.79
20350;BME280;10332;50.208;18.988;2023-01-28T15:27:52;98739.13;;;3.30;66.00
20350;BME280;10332;50.208;18.988;2023-01-28T15:30:25;98746.75;;;3.34;65.75
20350;BME280;10332;50.208;18.988;2023-01-28T15:33:14;98743.44;;;3.29;65.78
20350;BME280;10332;50.208;18.988;2023-01-28T15:35:54;98751.50;;;3.19;65.97
20350;BME280;10332;50.208;18.988;2023-01-28T15:38:26;98754.97;;;3.18;65.99
20350;BME280;10332;50.208;18.988;2023-01-28T15:41:01;98753.53;;;3.07;66.19
20350;BME280;10332;50.208;18.988;2023-01-28T15:43:36;98754.28;;;3.11;66.29
20350;BME280;10332;50.208;18.988;2023-01-28T15:46:11;98755.38;;;3.02;66.56
20350;BME280;10332;50.208;18.988;2023-01-28T15:48:47;98759.75;;;3.00;66.82
20350;BME280;10332;50.208;18.988;2023-01-28T15:51:25;98763.91;;;3.04;67.12